createdAt,value
2023-05-14T00:02:23.749Z,11.65
2023-05-14T00:05:11.241Z,11.66
2023-05-14T00:07:57.938Z,11.70
2023-05-14T00:10:44.955Z,11.67
2023-05-14T00:13:31.780Z,11.63
2023-05-14T00:16:19.971Z,11.75
2023-05-14T00:19:06.859Z,11.65
2023-05-14T00:21:53.425Z,11.66
2023-05-14T00:24:40.487Z,11.75
2023-05-14T00:27:27.502Z,11.74
2023-05-14T00:30:15.203Z,11.72
2023-05-14T00:33:05.044Z,11.85
2023-05-14T00:35:57.343Z,11.85
2023-05-14T00:38:44.674Z,11.85
2023-05-14T00:41:31.457Z,11.88
2023-05-14T00:44:18.312Z,11.84
2023-05-14T00:47:08.000Z,11.78
2023-05-14T00:49:56.404Z,11.66
2023-05-14T00:52:43.831Z,11.68
2023-05-14T00:55:32.091Z,11.81
2023-05-14T00:58:19.757Z,11.76
2023-05-14T01:01:06.545Z,11.65
2023-05-14T01:03:54.373Z,11.66
2023-05-14T01:06:52.071Z,11.67
2023-05-14T01:09:45.711Z,11.60
2023-05-14T01:12:39.591Z,11.56
2023-05-14T01:15:30.894Z,11.38
2023-05-14T01:18:20.864Z,11.56
2023-05-14T01:21:21.290Z,11.53
2023-05-14T01:24:09.800Z,11.41
2023-05-14T01:27:02.718Z,11.40
2023-05-14T01:29:54.486Z,11.20
2023-05-14T01:32:41.729Z,11.16
2023-05-14T01:35:30.677Z,11.09
2023-05-14T01:38:20.097Z,11.06
2023-05-14T01:41:08.755Z,11.09
2023-05-14T01:43:55.950Z,11.01
2023-05-14T01:46:42.682Z,11.04
2023-05-14T01:49:29.345Z,11.09
2023-05-14T01:52:16.274Z,11.05
2023-05-14T01:55:05.410Z,10.96
2023-05-14T01:57:53.578Z,10.92
2023-05-14T02:00:41.156Z,10.83
2023-05-14T02:03:27.881Z,10.78
2023-05-14T02:06:14.801Z,10.77
2023-05-14T02:09:01.451Z,10.71
2023-05-14T02:11:48.298Z,10.74
2023-05-14T02:14:36.486Z,10.73
2023-05-14T02:17:23.245Z,10.88
2023-05-14T02:20:11.328Z,10.89
2023-05-14T02:22:57.903Z,10.89
2023-05-14T02:25:45.947Z,10.80
2023-05-14T02:28:32.560Z,10.90
2023-05-14T02:31:21.046Z,10.97
2023-05-14T02:34:07.851Z,11.18
2023-05-14T02:36:54.578Z,10.99
2023-05-14T02:39:41.710Z,10.95
2023-05-14T02:42:28.516Z,11.26
2023-05-14T02:45:15.344Z,11.18
2023-05-14T02:48:03.670Z,11.08
2023-05-14T02:50:51.555Z,11.20
2023-05-14T02:53:38.374Z,11.24
2023-05-14T02:56:25.106Z,11.23
2023-05-14T02:59:12.104Z,11.30
2023-05-14T03:01:59.454Z,11.34
2023-05-14T03:04:48.386Z,11.31
2023-05-14T03:07:35.257Z,11.41
2023-05-14T03:10:22.397Z,11.55
2023-05-14T03:13:09.488Z,11.56
2023-05-14T03:15:57.047Z,11.56
2023-05-14T03:18:44.070Z,11.48
2023-05-14T03:21:32.676Z,11.43
2023-05-14T03:24:19.233Z,11.47
2023-05-14T03:27:06.546Z,11.54
2023-05-14T03:29:53.796Z,11.66
2023-05-14T03:32:41.425Z,11.68
2023-05-14T03:35:28.087Z,11.72
2023-05-14T03:38:16.462Z,11.82
2023-05-14T03:41:06.862Z,11.89
2023-05-14T03:43:53.849Z,11.92
2023-05-14T03:46:40.358Z,11.98
2023-05-14T03:49:27.289Z,12.00
2023-05-14T03:52:14.610Z,12.09
2023-05-14T03:55:05.661Z,11.56
2023-05-14T03:57:51.981Z,12.04
2023-05-14T04:00:38.807Z,12.18
2023-05-14T04:03:25.741Z,12.30
2023-05-14T04:06:12.564Z,12.46
2023-05-14T04:08:59.497Z,12.55
2023-05-14T04:11:47.598Z,12.57
2023-05-14T04:14:34.440Z,12.55
2023-05-14T04:17:21.293Z,12.49
2023-05-14T04:20:09.850Z,12.41
2023-05-14T04:22:56.410Z,12.44
2023-05-14T04:25:44.078Z,12.27
2023-05-14T04:28:32.870Z,12.12
2023-05-14T04:31:20.603Z,12.08
2023-05-14T04:34:08.497Z,12.19
2023-05-14T04:36:56.021Z,12.18
2023-05-14T04:39:44.186Z,12.05
2023-05-14T04:42:31.919Z,12.43
2023-05-14T04:45:21.480Z,12.56
2023-05-14T04:48:10.069Z,12.58
2023-05-14T04:50:58.383Z,12.74
2023-05-14T04:53:46.880Z,12.96
2023-05-14T04:56:34.179Z,13.17
2023-05-14T04:59:21.458Z,14.01
2023-05-14T05:02:09.882Z,14.76
2023-05-14T05:04:56.875Z,15.65
2023-05-14T05:07:43.567Z,16.81
2023-05-14T05:10:30.394Z,17.62
2023-05-14T05:13:17.372Z,18.14
2023-05-14T05:16:06.546Z,18.44
2023-05-14T05:18:54.365Z,18.68
2023-05-14T05:21:42.453Z,19.08
2023-05-14T05:24:31.499Z,19.13
2023-05-14T05:27:18.104Z,19.00
2023-05-14T05:30:05.543Z,19.27
2023-05-14T05:32:52.407Z,19.66
2023-05-14T05:35:40.581Z,20.06
2023-05-14T05:38:27.202Z,20.91
2023-05-14T05:42:28.365Z,20.98
2023-05-14T05:45:15.271Z,19.94
2023-05-14T05:48:02.216Z,18.35
2023-05-14T05:50:51.604Z,17.27
2023-05-14T05:53:38.489Z,16.86
2023-05-14T05:56:25.395Z,16.69
2023-05-14T05:59:12.351Z,16.47
2023-05-14T06:07:57.400Z,16.75
2023-05-14T06:10:47.518Z,16.66
2023-05-14T06:13:34.346Z,17.19
2023-05-14T06:16:21.380Z,17.26
2023-05-14T06:19:08.511Z,17.41
2023-05-14T06:21:54.978Z,17.61
2023-05-14T06:24:41.951Z,17.76
2023-05-14T06:27:29.972Z,17.93
2023-05-14T06:30:16.868Z,18.18
2023-05-14T06:33:03.950Z,18.48
2023-05-14T06:35:50.530Z,18.64
2023-05-14T06:38:37.456Z,18.69
2023-05-14T06:41:24.193Z,18.82
2023-05-14T06:44:12.531Z,18.85
2023-05-14T06:46:59.443Z,19.03
2023-05-14T06:49:46.430Z,19.14
2023-05-14T06:52:33.320Z,19.16
2023-05-14T06:55:20.146Z,19.19
2023-05-14T06:58:07.498Z,19.24
2023-05-14T07:00:55.477Z,19.13
2023-05-14T07:03:42.074Z,19.27
2023-05-14T07:06:28.781Z,19.33
2023-05-14T07:09:15.598Z,19.31
2023-05-14T07:12:02.545Z,19.36
2023-05-14T07:14:50.138Z,19.48
2023-05-14T07:17:38.091Z,19.40
2023-05-14T07:20:25.388Z,19.47
2023-05-14T07:23:12.071Z,19.35
2023-05-14T07:25:59.009Z,19.47
2023-05-14T07:28:46.201Z,19.41
2023-05-14T07:31:32.911Z,19.55
2023-05-14T07:34:21.174Z,19.72
2023-05-14T07:37:08.076Z,19.87
2023-05-14T07:40:53.982Z,19.93
2023-05-14T07:43:41.321Z,20.12
2023-05-14T07:46:28.062Z,20.12
2023-05-14T07:49:14.738Z,20.23
2023-05-14T07:52:03.039Z,20.08
2023-05-14T07:54:50.672Z,20.35
2023-05-14T07:57:38.446Z,20.36
2023-05-14T08:00:25.461Z,20.40
2023-05-14T08:03:12.747Z,20.52
2023-05-14T08:05:59.689Z,20.65
2023-05-14T08:08:47.906Z,20.73
2023-05-14T08:11:34.731Z,20.83
2023-05-14T08:14:22.142Z,20.85
2023-05-14T08:17:08.969Z,21.10
2023-05-14T08:19:55.609Z,21.03
2023-05-14T08:22:42.282Z,21.12
2023-05-14T08:25:30.631Z,21.13
2023-05-14T08:28:17.095Z,21.03
2023-05-14T08:31:04.071Z,20.66
2023-05-14T08:33:51.077Z,20.92
2023-05-14T08:36:37.708Z,21.19
2023-05-14T08:39:24.424Z,21.22
2023-05-14T08:42:14.219Z,21.36
2023-05-14T08:45:02.829Z,21.46
2023-05-14T08:47:51.454Z,21.66
2023-05-14T08:50:38.584Z,21.95
2023-05-14T08:53:25.275Z,22.17
2023-05-14T08:56:13.336Z,21.97
2023-05-14T08:59:01.842Z,22.16
2023-05-14T09:01:49.663Z,22.38
2023-05-14T09:04:37.655Z,22.41
2023-05-14T09:07:52.142Z,22.49
2023-05-14T09:10:40.781Z,22.28
2023-05-14T09:13:32.059Z,22.63
2023-05-14T09:16:23.691Z,22.74
2023-05-14T09:19:14.039Z,23.15
2023-05-14T09:22:13.066Z,23.63
2023-05-14T09:25:07.263Z,23.79
2023-05-14T09:27:56.691Z,24.14
2023-05-14T09:30:49.303Z,24.44
2023-05-14T09:33:37.154Z,24.51
2023-05-14T09:36:25.120Z,24.78
2023-05-14T09:39:11.912Z,25.36
2023-05-14T09:41:59.058Z,25.40
2023-05-14T09:44:47.490Z,25.43
2023-05-14T09:47:34.260Z,25.67
2023-05-14T09:50:22.934Z,25.14
2023-05-14T09:53:09.763Z,25.36
2023-05-14T09:55:56.784Z,25.49
2023-05-14T09:58:46.245Z,25.06
2023-05-14T10:01:34.096Z,24.83
2023-05-14T10:04:21.653Z,24.80
2023-05-14T10:07:10.046Z,24.69
2023-05-14T10:10:03.767Z,24.60
2023-05-14T10:12:54.727Z,24.11
2023-05-14T10:15:44.506Z,24.48
2023-05-14T10:18:35.730Z,24.68
2023-05-14T10:21:54.415Z,24.25
2023-05-14T10:24:42.727Z,24.36
2023-05-14T10:27:30.231Z,24.12
2023-05-14T10:30:17.282Z,24.04
2023-05-14T10:33:09.315Z,23.99
2023-05-14T10:35:59.071Z,24.15
2023-05-14T10:38:45.826Z,23.86
2023-05-14T10:41:35.371Z,23.71
2023-05-14T10:44:22.748Z,23.83
2023-05-14T10:47:09.408Z,23.82
2023-05-14T10:49:58.647Z,23.58
2023-05-14T10:52:46.281Z,23.41
2023-05-14T10:55:33.328Z,23.50
2023-05-14T10:58:22.460Z,23.58
2023-05-14T11:01:13.210Z,23.95
2023-05-14T11:03:59.721Z,24.30
2023-05-14T11:06:53.102Z,24.29
2023-05-14T11:09:39.931Z,24.22
2023-05-14T11:12:28.055Z,24.14
2023-05-14T11:15:21.836Z,24.47
2023-05-14T11:18:11.721Z,24.00
2023-05-14T11:21:00.315Z,23.43
2023-05-14T11:23:48.334Z,23.49
2023-05-14T11:26:35.428Z,23.33
2023-05-14T11:29:21.860Z,23.48
2023-05-14T11:32:10.477Z,23.96
2023-05-14T11:34:57.175Z,24.46
2023-05-14T11:37:43.995Z,24.84
2023-05-14T11:40:30.566Z,24.94
2023-05-14T11:43:17.528Z,24.95
2023-05-14T11:46:05.098Z,24.47
2023-05-14T11:48:53.078Z,24.38
2023-05-14T11:51:39.766Z,24.60
2023-05-14T11:54:28.410Z,24.58
2023-05-14T11:57:17.301Z,24.70
2023-05-14T12:00:06.199Z,24.73
2023-05-14T12:02:52.998Z,24.68
2023-05-14T12:05:41.281Z,24.68
2023-05-14T12:08:29.153Z,24.74
2023-05-14T12:11:15.761Z,24.63
2023-05-14T12:14:02.985Z,24.28
2023-05-14T12:16:52.881Z,24.18
2023-05-14T12:19:42.075Z,24.46
2023-05-14T12:22:31.077Z,24.17
2023-05-14T12:25:17.928Z,23.95
2023-05-14T12:28:15.923Z,23.41
2023-05-14T12:31:02.688Z,23.40
2023-05-14T12:33:49.267Z,23.01
2023-05-14T12:36:36.276Z,22.94
2023-05-14T12:39:25.139Z,22.74
2023-05-14T12:42:11.734Z,22.81
2023-05-14T12:44:59.213Z,22.71
2023-05-14T12:47:46.318Z,22.46
2023-05-14T12:50:33.393Z,22.48
2023-05-14T12:53:22.440Z,22.41
2023-05-14T12:56:10.998Z,22.65
2023-05-14T12:58:57.693Z,22.61
2023-05-14T13:01:44.256Z,22.98
2023-05-14T13:04:31.146Z,23.38
2023-05-14T13:07:17.823Z,23.28
2023-05-14T13:10:05.905Z,23.51
2023-05-14T13:12:54.173Z,23.77
2023-05-14T13:15:40.695Z,23.78
2023-05-14T13:18:27.669Z,24.11
2023-05-14T13:21:14.312Z,24.46
2023-05-14T13:24:01.196Z,24.44
2023-05-14T13:26:48.214Z,24.52
2023-05-14T13:29:37.780Z,24.34
2023-05-14T13:32:24.560Z,24.04
2023-05-14T13:35:11.693Z,24.05
2023-05-14T13:38:00.545Z,24.32
2023-05-14T13:40:46.986Z,24.54
2023-05-14T13:43:36.292Z,24.28
2023-05-14T13:46:24.881Z,24.29
2023-05-14T13:49:14.574Z,24.25
2023-05-14T13:52:01.463Z,24.30
2023-05-14T13:54:48.448Z,24.44
2023-05-14T13:57:34.979Z,24.29
2023-05-14T14:00:22.048Z,24.43
2023-05-14T14:03:10.776Z,24.23
2023-05-14T14:05:57.274Z,24.08
2023-05-14T14:08:44.083Z,24.04
2023-05-14T14:11:30.838Z,24.15
2023-05-14T14:14:18.423Z,24.05
2023-05-14T14:17:05.353Z,23.91
2023-05-14T14:19:54.347Z,23.98
2023-05-14T14:22:41.451Z,24.06
2023-05-14T14:25:28.031Z,23.79
2023-05-14T14:28:14.858Z,23.81
2023-05-14T14:31:01.671Z,23.75
2023-05-14T14:33:48.510Z,23.97
2023-05-14T14:36:36.848Z,23.92
2023-05-14T14:39:25.421Z,23.77
2023-05-14T14:42:12.182Z,23.69
2023-05-14T14:44:59.059Z,23.57
2023-05-14T14:47:47.163Z,23.36
2023-05-14T14:50:37.033Z,23.26
2023-05-14T14:53:25.720Z,23.13
2023-05-14T14:56:15.098Z,23.05
2023-05-14T14:59:02.479Z,22.95
2023-05-14T15:01:49.508Z,22.74
2023-05-14T15:04:39.080Z,22.67
2023-05-14T15:07:26.159Z,22.70
2023-05-14T15:10:14.104Z,22.82
2023-05-14T15:13:01.246Z,22.89
2023-05-14T15:15:50.289Z,22.90
2023-05-14T15:18:36.800Z,22.93
2023-05-14T15:21:26.040Z,22.99
2023-05-14T15:24:13.927Z,22.92
2023-05-14T15:27:01.768Z,23.03
2023-05-14T15:29:48.747Z,22.81
2023-05-14T15:32:35.895Z,22.84
2023-05-14T15:40:14.275Z,22.96
2023-05-14T15:43:02.986Z,22.79
2023-05-14T15:45:50.448Z,22.87
2023-05-14T15:48:37.172Z,22.97
2023-05-14T15:51:24.173Z,23.11
2023-05-14T15:54:11.159Z,23.05
2023-05-14T15:56:57.899Z,22.82
2023-05-14T15:59:46.527Z,23.03
2023-05-14T16:02:33.500Z,23.12
2023-05-14T16:05:20.384Z,23.16
2023-05-14T16:08:07.521Z,23.15
2023-05-14T16:10:54.564Z,23.30
2023-05-14T16:13:41.726Z,23.31
2023-05-14T16:16:29.808Z,23.56
2023-05-14T16:19:17.798Z,23.53
2023-05-14T16:22:04.457Z,23.64
2023-05-14T16:24:51.490Z,23.66
2023-05-14T16:27:38.602Z,23.43
2023-05-14T16:30:25.710Z,23.30
2023-05-14T16:34:26.822Z,23.21
2023-05-14T16:37:15.163Z,22.80
2023-05-14T16:40:04.143Z,22.75
2023-05-14T16:42:51.292Z,22.50
2023-05-14T16:45:40.364Z,22.33
2023-05-14T16:48:27.835Z,22.11
2023-05-14T16:51:18.447Z,22.15
2023-05-14T16:54:11.639Z,22.03
2023-05-14T16:57:00.771Z,21.96
2023-05-14T16:59:47.499Z,21.92
2023-05-14T17:03:24.023Z,21.77
2023-05-14T17:06:11.375Z,21.70
2023-05-14T17:08:58.415Z,21.42
2023-05-14T17:11:46.718Z,21.23
2023-05-14T17:14:33.169Z,21.11
2023-05-14T17:17:20.093Z,20.99
2023-05-14T17:20:08.216Z,20.76
2023-05-14T17:22:57.514Z,20.69
2023-05-14T17:25:43.976Z,20.70
2023-05-14T17:28:32.173Z,20.58
2023-05-14T17:31:19.127Z,20.46
2023-05-14T17:34:05.905Z,20.47
2023-05-14T17:36:52.834Z,20.32
2023-05-14T17:39:39.826Z,20.24
2023-05-14T17:42:27.524Z,20.07
2023-05-14T17:45:20.860Z,20.08
2023-05-14T17:48:10.739Z,20.03
2023-05-14T17:50:59.671Z,19.94
2023-05-14T17:53:46.640Z,19.90
2023-05-14T17:56:36.058Z,20.01
2023-05-14T17:59:47.330Z,19.83
2023-05-14T18:02:35.931Z,19.78
2023-05-14T18:08:47.551Z,19.61
2023-05-14T18:11:34.805Z,19.74
2023-05-14T18:14:21.600Z,19.78
2023-05-14T18:17:10.999Z,19.62
2023-05-14T18:20:03.367Z,19.52
2023-05-14T18:22:50.809Z,19.43
2023-05-14T18:25:37.859Z,19.33
2023-05-14T18:28:24.462Z,19.27
2023-05-14T18:31:11.635Z,19.23
2023-05-14T18:33:58.228Z,19.13
2023-05-14T18:36:46.496Z,19.04
2023-05-14T18:39:35.505Z,18.91
2023-05-14T18:42:47.425Z,18.88
2023-05-14T18:45:34.614Z,18.84
2023-05-14T18:48:21.525Z,18.72
2023-05-14T18:51:08.361Z,18.75
2023-05-14T18:53:56.707Z,18.67
2023-05-14T18:56:47.768Z,18.61
2023-05-14T18:59:35.642Z,18.56
2023-05-14T19:02:22.468Z,18.54
2023-05-14T19:05:09.652Z,18.49
2023-05-14T19:07:58.146Z,18.46
2023-05-14T19:10:46.508Z,18.39
2023-05-14T19:13:35.408Z,18.34
2023-05-14T19:16:24.888Z,18.30
2023-05-14T19:19:14.439Z,18.33
2023-05-14T19:22:06.359Z,18.33
2023-05-14T19:24:53.728Z,18.25
2023-05-14T19:28:01.223Z,18.20
2023-05-14T19:30:57.006Z,18.13
2023-05-14T19:33:43.639Z,18.14
2023-05-14T19:36:31.659Z,18.06
2023-05-14T19:39:18.665Z,17.98
2023-05-14T19:42:08.311Z,17.93
2023-05-14T19:44:59.883Z,17.90
2023-05-14T19:47:49.166Z,17.87
2023-05-14T19:50:38.737Z,17.85
2023-05-14T19:53:30.114Z,17.82
2023-05-14T19:56:21.444Z,17.83
2023-05-14T19:59:07.941Z,17.78
2023-05-14T20:01:59.064Z,17.75
2023-05-14T20:04:49.640Z,17.79
2023-05-14T20:07:41.102Z,17.91
2023-05-14T20:10:30.002Z,17.94
2023-05-14T20:13:16.644Z,17.78
2023-05-14T20:16:04.286Z,17.76
2023-05-14T20:18:55.009Z,17.63
2023-05-14T20:21:44.684Z,17.55
2023-05-14T20:24:35.471Z,17.51
2023-05-14T20:27:23.047Z,17.45
2023-05-14T20:30:10.532Z,17.38
2023-05-14T20:32:57.349Z,17.41
2023-05-14T20:35:48.590Z,17.32
2023-05-14T20:38:35.721Z,17.27
2023-05-14T20:41:22.670Z,17.20
2023-05-14T20:44:09.708Z,17.17
2023-05-14T20:46:59.087Z,17.17
2023-05-14T20:49:45.627Z,17.11
2023-05-14T20:52:36.320Z,17.02
2023-05-14T20:55:23.364Z,17.21
2023-05-14T20:58:19.139Z,17.17
2023-05-14T21:01:10.047Z,16.90
2023-05-14T21:03:56.826Z,16.68
2023-05-14T21:06:43.675Z,16.62
2023-05-14T21:09:34.091Z,16.54
2023-05-14T21:12:22.955Z,16.56
2023-05-14T21:15:10.968Z,16.44
2023-05-14T21:17:58.714Z,16.25
2023-05-14T21:20:45.654Z,16.21
2023-05-14T21:23:34.864Z,16.20
2023-05-14T21:26:25.434Z,15.89
2023-05-14T21:29:12.853Z,16.00
2023-05-14T21:32:02.038Z,15.85
2023-05-14T21:34:49.076Z,15.86
2023-05-14T21:37:36.135Z,15.74
2023-05-14T21:40:22.933Z,15.78
2023-05-14T21:43:13.298Z,15.74
2023-05-14T21:46:02.323Z,15.74
2023-05-14T21:48:49.850Z,15.70
2023-05-14T21:51:36.880Z,15.66
2023-05-14T21:54:23.765Z,15.67
2023-05-14T21:57:13.622Z,15.68
2023-05-14T22:00:04.878Z,15.60
2023-05-14T22:02:55.413Z,15.58
2023-05-14T22:05:41.960Z,15.54
2023-05-14T22:08:29.729Z,15.48
2023-05-14T22:11:16.782Z,15.38
2023-05-14T22:14:08.553Z,15.30
2023-05-14T22:16:58.876Z,15.20
2023-05-14T22:19:45.670Z,15.27
2023-05-14T22:22:32.386Z,14.98
2023-05-14T22:25:19.327Z,14.84
2023-05-14T22:28:08.850Z,14.70
2023-05-14T22:30:57.447Z,14.68
2023-05-14T22:33:45.401Z,14.73
2023-05-14T22:36:32.218Z,14.60
2023-05-14T22:39:20.740Z,14.41
2023-05-14T22:42:07.621Z,14.28
2023-05-14T22:44:56.688Z,14.27
2023-05-14T22:47:45.655Z,14.17
2023-05-14T22:50:33.962Z,14.15
2023-05-14T22:53:20.730Z,14.28
2023-05-14T22:56:07.961Z,14.19
2023-05-14T22:58:57.072Z,14.13
2023-05-14T23:01:43.704Z,14.13
2023-05-14T23:04:30.678Z,14.11
2023-05-14T23:07:18.760Z,14.03
2023-05-14T23:10:06.225Z,13.98
2023-05-14T23:12:56.993Z,13.93
2023-05-14T23:15:45.426Z,13.88
2023-05-14T23:18:34.576Z,13.72
2023-05-14T23:21:21.485Z,13.76
2023-05-14T23:24:10.121Z,13.62
2023-05-14T23:26:56.982Z,13.59
2023-05-14T23:29:43.697Z,13.63
2023-05-14T23:32:32.944Z,13.59
2023-05-14T23:35:19.932Z,13.56
2023-05-14T23:38:07.352Z,13.56
2023-05-14T23:40:55.390Z,13.43
2023-05-14T23:43:42.268Z,13.39
2023-05-14T23:46:29.528Z,13.30
2023-05-14T23:49:16.242Z,13.23
2023-05-14T23:52:03.367Z,13.13
2023-05-14T23:54:49.917Z,13.10
2023-05-14T23:57:38.286Z,13.03
